»·PEaware :: WAT169 KDEN-KSAN

WAT169 :: KDEN-KSAN

FLIGHT INFORMATION

Flight Status: Arrived
Operator:
Walker Air Transport
More flights by this operator :: More flights under this callsign
Pilot: Marty P. (27464)
Aircraft: BOEING 737-800
(B738)
More flights by this aircraft type
Origin: KDEN Denver Intl
United States
Destination: KSAN San Diego Intl-Lindbergh
United States
More flights between these airports :: More routes between these airports
Route: +BAYLR6 TEHRU PLNDL Q86 TTRUE LUCKI1
File this flight plan on PilotEdge
Remarks:
Altitude:
(Current/Filed)
38,000ft
Speed:
(Current/Filed)
480kts
Departed: 20-Oct-20 05:49 PM
Arrived: 20-Oct-20 07:37 PM
Distance/Time
Traveled:
741nm/1:47
Distance/Time
To Go:
Arrived

Flight Plot

Page will automatically refresh every two minutes.

Flight plan parsing failed; only flown route is shown


Map Options




Map Legend


Flown Route
Filed Route
Departure Airport
Arrival Airport
Navaid (VOR, NDB)
Fix

Horizontal Profiles

Position Reports

Time Latitude Longitude Heading Altitude Ground
Speed
20-Oct-20 17:08 39.863575 -104.677852 177 5444ft 0kts
20-Oct-20 17:09 39.863575 -104.677852 177 5444ft 0kts
20-Oct-20 17:10 39.863575 -104.677852 177 5444ft 0kts
20-Oct-20 17:11 39.863575 -104.677852 177 5444ft 0kts
20-Oct-20 17:12 39.863575 -104.677852 177 5444ft 0kts
20-Oct-20 17:13 39.863575 -104.677852 177 5444ft 0kts
20-Oct-20 17:14 39.863575 -104.677852 177 5444ft 0kts
20-Oct-20 17:15 39.863575 -104.677852 177 5444ft 0kts
20-Oct-20 17:16 39.863575 -104.677852 177 5444ft 0kts
20-Oct-20 17:17 39.863575 -104.677852 177 5444ft 0kts
20-Oct-20 17:18 39.863575 -104.677852 177 5444ft 0kts
20-Oct-20 17:19 39.863575 -104.677852 177 5444ft 0kts
20-Oct-20 17:20 39.863575 -104.677852 177 5444ft 0kts
20-Oct-20 17:21 39.863575 -104.677852 177 5444ft 0kts
20-Oct-20 17:22 39.863575 -104.677852 177 5444ft 0kts
20-Oct-20 17:23 39.863575 -104.677852 177 5444ft 0kts
20-Oct-20 17:24 39.863575 -104.677852 177 5444ft 0kts
20-Oct-20 17:25 39.863575 -104.677852 177 5444ft 0kts
20-Oct-20 17:26 39.863575 -104.677852 177 5444ft 0kts
20-Oct-20 17:27 39.863575 -104.677852 177 5444ft 0kts
20-Oct-20 17:28 39.863575 -104.677852 177 5444ft 0kts
20-Oct-20 17:29 39.863575 -104.677852 177 5444ft 0kts
20-Oct-20 17:30 39.863575 -104.677852 177 5444ft 0kts
20-Oct-20 17:31 39.863584 -104.677852 178 5444ft 0kts
20-Oct-20 17:32 39.863584 -104.677852 178 5444ft 0kts
20-Oct-20 17:33 39.863596 -104.677853 178 5444ft 0kts
20-Oct-20 17:34 39.863596 -104.677853 178 5444ft 0kts
20-Oct-20 17:35 39.863596 -104.677853 178 5444ft 0kts
20-Oct-20 17:36 39.864150 -104.677877 177 5444ft 2kts
20-Oct-20 17:37 39.864696 -104.677708 233 5444ft 2kts
20-Oct-20 17:38 39.864775 -104.678238 270 5444ft 7kts
20-Oct-20 17:39 39.864796 -104.681028 270 5444ft 5kts
20-Oct-20 17:40 39.864254 -104.682646 270 5444ft 5kts
20-Oct-20 17:41 39.864258 -104.682941 270 5444ft 0kts
20-Oct-20 17:42 39.864258 -104.682941 270 5444ft 0kts
20-Oct-20 17:43 39.863176 -104.683920 180 5444ft 13kts
20-Oct-20 17:44 39.860478 -104.683952 180 5444ft 11kts
20-Oct-20 17:45 39.854312 -104.684022 180 5444ft 20kts
20-Oct-20 17:46 39.847919 -104.684091 180 5444ft 24kts
20-Oct-20 17:47 39.842712 -104.684162 180 5444ft 10kts
20-Oct-20 17:48 39.840705 -104.691484 270 5444ft 86kts
20-Oct-20 17:49 39.841164 -104.749435 272 6196ft 195kts
20-Oct-20 17:50 39.812670 -104.822978 238 7682ft 271kts
20-Oct-20 17:51 39.775670 -104.908317 250 11295ft 282kts
20-Oct-20 17:52 39.753582 -105.003473 259 14857ft 276kts
20-Oct-20 17:53 39.722890 -105.111658 248 15779ft 358kts
20-Oct-20 17:54 39.680623 -105.235237 249 18026ft 382kts
20-Oct-20 17:55 39.638078 -105.363237 250 20451ft 391kts
20-Oct-20 17:56 39.594836 -105.494176 250 22604ft 398kts
20-Oct-20 17:57 39.549994 -105.631756 253 23145ft 437kts
20-Oct-20 17:58 39.506770 -105.787137 253 23145ft 475kts
20-Oct-20 17:59 39.460968 -105.952190 253 23185ft 495kts
20-Oct-20 18:00 39.414563 -106.118369 253 24816ft 475kts
20-Oct-20 18:02 39.371041 -106.272115 254 27933ft 437kts
20-Oct-20 18:03 39.329876 -106.416798 254 29876ft 428kts
20-Oct-20 18:04 39.288966 -106.560684 254 31435ft 425kts
20-Oct-20 18:05 39.241660 -106.700135 247 32858ft 427kts
20-Oct-20 18:06 39.175970 -106.828634 238 34178ft 432kts
20-Oct-20 18:07 39.102505 -106.950004 238 35394ft 430kts
20-Oct-20 18:08 39.028748 -107.070573 237 36468ft 429kts
20-Oct-20 18:09 38.955086 -107.190377 237 37334ft 429kts
20-Oct-20 18:10 38.881015 -107.310356 237 38047ft 430kts
20-Oct-20 18:11 38.805809 -107.431804 237 38138ft 442kts
20-Oct-20 18:12 38.728195 -107.556658 237 38099ft 452kts
20-Oct-20 18:13 38.649314 -107.683023 236 38100ft 458kts
20-Oct-20 18:14 38.569320 -107.810588 236 38100ft 463kts
20-Oct-20 18:15 38.488347 -107.939250 236 38100ft 466kts
20-Oct-20 18:16 38.406818 -108.068318 236 38100ft 468kts
20-Oct-20 18:17 38.325085 -108.197217 235 38100ft 469kts
20-Oct-20 18:18 38.242999 -108.326176 235 38155ft 469kts
20-Oct-20 18:19 38.160836 -108.454764 235 38290ft 468kts
20-Oct-20 18:19 38.092491 -108.561328 236 38258ft 470kts
20-Oct-20 18:21 37.995887 -108.711275 235 38138ft 472kts
20-Oct-20 18:21 37.926179 -108.819027 234 38141ft 474kts
20-Oct-20 18:22 37.842543 -108.947815 234 38175ft 475kts
20-Oct-20 18:23 37.758359 -109.076964 234 38183ft 476kts
20-Oct-20 18:24 37.674262 -109.205477 234 38181ft 476kts
20-Oct-20 18:25 37.589754 -109.334109 234 38182ft 477kts
20-Oct-20 18:26 37.505124 -109.462419 234 38183ft 477kts
20-Oct-20 18:27 37.420222 -109.590646 234 38183ft 478kts
20-Oct-20 18:28 37.334934 -109.718915 233 38183ft 478kts
20-Oct-20 18:29 37.249599 -109.846743 233 38182ft 479kts
20-Oct-20 18:30 37.163680 -109.974975 233 38183ft 480kts
20-Oct-20 18:31 37.077808 -110.102655 232 38183ft 481kts
20-Oct-20 18:32 36.991258 -110.230834 232 38154ft 482kts
20-Oct-20 18:33 36.904429 -110.358931 232 38050ft 485kts
20-Oct-20 18:34 36.817185 -110.487134 232 38008ft 484kts
20-Oct-20 18:35 36.729844 -110.614987 232 38008ft 484kts
20-Oct-20 18:36 36.642426 -110.742431 231 38009ft 485kts
20-Oct-20 18:37 36.554930 -110.869506 231 38009ft 485kts
20-Oct-20 18:38 36.466905 -110.996876 231 38009ft 486kts
20-Oct-20 18:39 36.379005 -111.123590 231 38009ft 486kts
20-Oct-20 18:40 36.290720 -111.250380 231 38009ft 486kts
20-Oct-20 18:41 36.202065 -111.377213 231 38011ft 487kts
20-Oct-20 18:42 36.113601 -111.503291 230 38113ft 486kts
20-Oct-20 18:43 36.025042 -111.629033 230 38174ft 486kts
20-Oct-20 18:44 35.935661 -111.755448 230 38119ft 489kts
20-Oct-20 18:45 35.848187 -111.883241 235 38151ft 488kts
20-Oct-20 18:46 35.775290 -112.023663 240 38168ft 487kts
20-Oct-20 18:47 35.707375 -112.167599 240 38173ft 487kts
20-Oct-20 18:48 35.639055 -112.311520 241 38174ft 487kts
20-Oct-20 18:49 35.571443 -112.455192 241 38173ft 487kts
20-Oct-20 18:50 35.504153 -112.599328 241 38174ft 487kts
20-Oct-20 18:51 35.436742 -112.743388 240 38182ft 488kts
20-Oct-20 18:52 35.368781 -112.888104 240 38139ft 489kts
20-Oct-20 18:53 35.300863 -113.032166 240 38029ft 490kts
20-Oct-20 18:54 35.232753 -113.175995 240 38009ft 489kts
20-Oct-20 18:55 35.163774 -113.319403 240 38009ft 488kts
20-Oct-20 18:56 35.095297 -113.462268 240 38009ft 488kts
20-Oct-20 18:57 35.026733 -113.605134 240 38009ft 488kts
20-Oct-20 18:58 34.958028 -113.747790 240 38008ft 487kts
20-Oct-20 18:59 34.892632 -113.883031 240 38011ft 450kts
20-Oct-20 19:00 34.826251 -114.015053 238 37996ft 460kts
20-Oct-20 19:01 34.758423 -114.145386 238 37903ft 454kts
20-Oct-20 19:02 34.690945 -114.275548 238 37836ft 456kts
20-Oct-20 19:03 34.618921 -114.401927 231 37838ft 456kts
20-Oct-20 19:04 34.536305 -114.518873 230 37836ft 456kts
20-Oct-20 19:05 34.452786 -114.634879 230 37840ft 456kts
20-Oct-20 19:06 34.369063 -114.750338 229 37843ft 457kts
20-Oct-20 19:07 34.285209 -114.864902 229 37841ft 455kts
20-Oct-20 19:08 34.201535 -114.978959 229 37836ft 454kts
20-Oct-20 19:09 34.117942 -115.092742 229 37812ft 454kts
20-Oct-20 19:10 34.034182 -115.206441 229 37798ft 451kts
20-Oct-20 19:11 33.951941 -115.317564 230 37794ft 435kts
20-Oct-20 19:12 33.869792 -115.428537 231 35521ft 447kts
20-Oct-20 19:13 33.788359 -115.538496 231 32919ft 442kts
20-Oct-20 19:14 33.705731 -115.649886 230 30318ft 453kts
20-Oct-20 19:15 33.621555 -115.764179 234 27703ft 460kts
20-Oct-20 19:16 33.546919 -115.890375 235 25095ft 469kts
20-Oct-20 19:17 33.473751 -116.016183 235 23769ft 457kts
20-Oct-20 19:18 33.400828 -116.141661 235 21555ft 451kts
20-Oct-20 19:19 33.322870 -116.251708 217 18778ft 418kts
20-Oct-20 19:20 33.225703 -116.315586 207 16167ft 375kts
20-Oct-20 19:21 33.136574 -116.367780 206 13164ft 344kts
20-Oct-20 19:22 33.054351 -116.415805 206 11981ft 319kts
20-Oct-20 19:23 32.978711 -116.470820 220 11451ft 318kts
20-Oct-20 19:24 32.912460 -116.538177 220 10578ft 297kts
20-Oct-20 19:25 32.853516 -116.597598 220 10058ft 264kts
20-Oct-20 19:26 32.797779 -116.653797 220 8859ft 264kts
20-Oct-20 19:27 32.752763 -116.722029 241 7582ft 265kts
20-Oct-20 19:28 32.716776 -116.798533 240 6307ft 265kts
20-Oct-20 19:29 32.690333 -116.872795 250 5179ft 212kts
20-Oct-20 19:30 32.674933 -116.933166 267 4359ft 187kts
20-Oct-20 19:31 32.685560 -116.991893 287 3566ft 181kts
20-Oct-20 19:32 32.699231 -117.048070 286 2523ft 175kts
20-Oct-20 19:33 32.712005 -117.100832 286 1486ft 151kts
20-Oct-20 19:34 32.723661 -117.148831 286 702ft 149kts
20-Oct-20 19:35 32.734435 -117.192935 286 27ft 58kts
20-Oct-20 19:36 32.735273 -117.200968 286 27ft 17kts
20-Oct-20 19:37 32.736064 -117.205858 266 27ft 15kts
20-Oct-20 19:38 32.733813 -117.206383 88 27ft 6kts
20-Oct-20 19:39 32.733882 -117.204694 86 27ft 0kts
20-Oct-20 19:40 32.733882 -117.204694 86 27ft 0kts
20-Oct-20 19:41 32.733882 -117.204694 86 27ft 0kts

Navigation Log

Ident Type
Flight plan parsing failed, navigation log unavailable